• Join FlightAware (Why Join?)
  • Login
  • US Flag 
Gobble Gobble! 
10:04PM EST


 

Airport Tracker/Info


-or-


 

Live Flight TrackerFlight Track Log ✈ N415JA ✈ 23-Feb-2014 ✈ MYNN / NAS - KMIA

Flight Track Log - Related Links

Times and Time Zones

All times are in EST time to prevent confusion due to time zone crossing. See the N415JA flight status page for this flight to view local times or setup timezone preferences in your user account.

Time Position Orientation Groundspeed Altitude Reporting Facility
EST Latitude Longitude Course Direction KTS MPH feet Rate Location/Type
06:28PM 24.9736 -77.4572 266° West 350 403 4,900  Level Miami Center
06:29PM 24.9689 -77.5372 266° West 298 343 8,200 3,420 Climbing Miami Center
06:30PM 24.9353 -77.6128 244° Southwest 287 330 11,800 2,700 Climbing Miami Center
06:31PM 24.8950 -77.6881 239° Southwest 287 330 13,600 1,380 Climbing Miami Center
06:32PM 24.8569 -77.7728 244° Southwest 292 336 14,600 900 Climbing Miami Center
06:33PM 24.8314 -77.8619 252° West 302 348 15,500 660 Climbing Miami Center
06:34PM 24.8411 -77.9581 276° West 307 353 16,000 240 Climbing Miami Center
06:35PM 24.8739 -78.0592 290° West 326 375 16,000  Level Miami Center
06:36PM 24.9064 -78.1625 289° West 340 391 16,000  Level Miami Center
06:37PM 24.9408 -78.2661 290° West 352 405 16,000  Level Miami Center
06:38PM 24.9711 -78.3694 288° West 362 417 16,000  Level Miami Center
06:39PM 25.0036 -78.4756 289° West 362 417 16,000  Level Miami Center
06:40PM 25.0339 -78.5675 290° West 367 422 16,000  Level Miami Center
06:41PM 25.0639 -78.6711 288° West 367 422 16,000  Level Miami Center
06:42PM 25.0961 -78.7750 289° West 367 422 16,000  Level Miami Center
06:43PM 25.1303 -78.8811 290° West 367 422 16,000  Level Miami Center
06:44PM 25.1683 -78.9942 290° West 367 422 16,000  Level Miami Center
06:45PM 25.2003 -79.0936 290° West 367 422 16,000  Level Miami Center
06:46PM 25.2281 -79.1881 288° West 350 403 16,000  Level Miami Center
06:47PM 25.2558 -79.2853 288° West 343 395 16,000  Level Miami Center
06:48PM 25.2856 -79.3800 289° West 338 389 16,000  Level Miami Center
06:49PM 25.3153 -79.4772 289° West 333 383 16,000 -360 Level Miami Center
06:49PM 25.3308 -79.5372 286° West 332 382 15,500 -1,200 Descending Miami Center
06:50PM 25.3428 -79.5719 291° West 333 383 14,800 -1,860 Descending Miami Center
06:50PM 25.3506 -79.6067 284° West 326 375 14,200 -1,800 Descending Miami Center
06:51PM 25.3722 -79.6669 292° West 328 377 13,000 -1,680 Descending Miami Center
06:51PM 25.3761 -79.6922 280° West 323 372 12,700 -1,740 Descending Miami Center
06:52PM 25.4125 -79.7553 303° West 323 372 11,300 -1,620 Descending Miami Center
06:52PM 25.4264 -79.7856 297° West 327 376 10,900 -1,140 Descending Miami Center
06:53PM 25.4650 -79.8394 308° West 318 366 10,200 -1,020 Descending Miami Center
06:53PM 25.4750 -79.8581 301° West 324 373 10,000 -240 Descending Miami Center
06:54PM 25.5178 -79.9189 308° West 329 379 10,000  Level Miami Center
06:54PM 25.5378 -79.9517 304° West 330 380 10,000  Level Miami Center
06:55PM 25.5703 -79.9986 308° West 334 384 10,000 -120 Level Miami Center
06:55PM 25.5906 -80.0336 303° West 325 374 9,900 -900 Descending Miami Center
06:56PM 25.6208 -80.0758 309° West 327 376 9,100 -1,200 Descending Miami Center
06:56PM 25.6350 -80.1039 299° West 275 316 8,700 -1,020 Descending Miami Center
06:57PM 25.6653 -80.1439 310° West 300 345 8,100 -720 Descending Miami Center
06:57PM 25.6794 -80.1719 299° West 259 298 8,000 -120 Descending Miami Center
06:58PM 25.6931 -80.2092 292° West 263 303 8,000  Level Miami Center
06:58PM 25.6925 -80.2414 269° West 228 262 8,000 -1,020 Level Miami Center
06:59PM 25.7000 -80.2786 283° West 228 262 7,000 -1,740 Descending Miami Center
06:59PM 25.6992 -80.3131 268° West 239 275 6,300 -1,620 Descending Miami Center
07:00PM 25.7056 -80.3894 275° West 232 267 4,700 -1,380 Descending Miami Center
07:01PM 25.7144 -80.4567 278° West 215 247 3,500 -840 Descending Miami Center
07:02PM 25.7706 -80.4628 354° North 211 243 3,000 -720 Descending Miami Center
07:03PM 25.7950 -80.4058 64° Northeast 166 191 2,000 -900 Descending Miami Center
07:04PM 25.7983 -80.3597 85° East 157 181 1,200 -900 Descending Miami Center
07:05PM 25.7994 -80.3136 88° East 144 166 300 -900 Descending Miami Center
07:07PM 25.7954 -80.2901 90° East  Level Estimated
07:14PM 25.7954 -80.2901 90° East  Level Estimated